Local Weather Ingen bokad jour idag Thursday 24th of August
Flygplats METAR TAF
Airport METAR TAF
ESSL - Linköping240750Z 28005KT 210V320 CAVOK 16/09 Q1013= 240450Z 2405/2414 25005G12KT CAVOK RMK MIL=
ESSP - Norrköping240750Z 27010KT CAVOK 16/10 Q1012= 240830Z 2409/2418 28010KT CAVOK=
ESGJ - Jönköping240750Z 25008KT CAVOK 15/08 Q1013= 240830Z 2409/2418 25008KT CAVOK=
ESKN - Skavsta240750Z 28009KT CAVOK 16/10 Q1012= 240530Z 2406/2506 28007KT CAVOK TEMPO 2422/2506 SHRA BKN040CB=
ESSV - Visby240750Z 32008KT CAVOK 17/10 Q1012= 240830Z 2409/2418 32010KT CAVOK=
ESGG - Göteborg240750Z 18006KT CAVOK 14/11 Q1013= 240530Z 2406/2506 15005KT CAVOK TEMPO 2411/2420 SHRA SCT040CB TEMPO 2420/2503 4000 -DZRA BR BKN008 BECMG 2421/2423 27010KT=
FLEET STATUS
Flygplan Tid till service Tid till flygstopp Flygtid Landningar
Aircraft Time to service Time to stop Total time Landings
SE-FCEN/AN/A4 829.9 h206 st.
SE-IUD33.4 h38.4 h10 916.6 h21 523 st.
SE-KIT36.7 h46.7 h11 163.3 h21 134 st.
SE-KMH15.9 h25.9 h15 384.1 h58 027 st.
SE-LLMN/AN/A132.0 h224 st.
SE-MEB3.8 h13.8 h1 096.2 h3 358 st.
SE-SIMN/AN/A1 192.2 h85 st.
NOTAM
ESSL/LINKOPING/SAAB
- AERODROME CONTROL TOWER (TWR) HOURS OF OPS/SERVICE MON-FRI 0345-2100 SAT 0345-0445, 1415-1530, 2000-2100 SUN 0345-0445, 1200-1315, 1500-1615, 2000-2100 FROM: 21 AUG 2017 00:00 TO: 27 AUG 2017 23:59 ES/B2368/17 - PERM AIRAC AIP AMDT 5/17 WEF 17 AUG 2017. PCN CHANGED FOR APRON AND TWYS. FROM: 17 AUG 2017 00:00 TO: 31 AUG 2017 00:00 ES/B2164/17
ESCF/LINKOPING/MALMEN
+ PAR OUT OF SERVICE DUE MAINT FROM: 23 AUG 2017 05:30 TO: 25 AUG 2017 10:00 ES/C1494/17
ESSP/NORRKOPING/KUNGSANGEN
- AERODROME CONTROL TOWER (TWR) HOURS OF OPS/SERVICE MON-THU 0500-2000 FRI 0400-2300 SAT 0530-0700, 1300-1600 SUN 1200-1600 FROM: 21 AUG 2017 00:00 TO: 27 AUG 2017 23:59 ES/B2131/17 - FUEL HOURS OF OPS/SERVICE MON-THU 0500-1900 FRI 0400-2200 SAT 0530-0700 1300-1500 SUN 1200-1500 FROM: 21 AUG 2017 00:00 TO: 27 AUG 2017 23:59 ES/B2146/17 - PERM AIRAC AIP AMDT 5/17 WEF 17 AUG 2017. ADQ SURVEY PERFORMED. FROM: 17 AUG 2017 00:00 TO: 31 AUG 2017 00:00 ES/B2165/17 CONTINUES ON NEXT PAGE ISSUED: 24 AUG 2017 07:55 UTC PAGE: 6(11) - CIRCLING SOUTH RWY 09/27 CHANGED CAT A OCA(OCH) 590FT(560FT) DUE TEMPO OBSTACLE FROM: 04 AUG 2017 16:00 TO: 20 OCT 2017 16:00 ES/B2271/17 - NORRKOPING NEW DME CH32X FREQ 109,5 MHZ ON TEST SAME FRQ AS LOC 27 ILS CAT 1, DO NOT USE FROM: 31 JUL 2017 09:53 TO: 30 SEP 2017 12:00 EST ES/B2393/17